Time;durP1;ratioP1;P1;durP2;ratioP2;P2;SDS_P1;SDS_P2;PMS_P1;PMS_P2;Temp;Humidity;BMP_temperature;BMP_pressure;BME280_temperature;BME280_humidity;BME280_pressure;Samples;Min_cycle;Max_cycle;Signal;HPM_P1;HPM_P2
2022/05/11 00:00:17;;;;;;;4.05;1.15;;;;;;;10.45;33.11;99366.50;4836038;29;20048;-80
2022/05/11 00:02:44;;;;;;;2.83;1.00;;;;;;;10.68;33.03;99401.72;4847645;29;20053;-78
2022/05/11 00:05:13;;;;;;;3.80;0.98;;;;;;;10.77;33.09;99408.50;4849576;29;20442;-80
2022/05/11 00:07:39;;;;;;;2.00;0.90;;;;;;;10.77;32.90;99406.75;4810165;29;20048;-79
2022/05/11 00:10:12;;;;;;;3.70;1.10;;;;;;;10.69;33.03;99393.88;4854380;29;20065;-77
2022/05/11 00:12:40;;;;;;;2.13;0.80;;;;;;;10.75;32.85;99400.69;4836194;29;20050;-78
2022/05/11 00:15:07;;;;;;;1.20;0.70;;;;;;;10.73;33.14;99393.81;4840824;29;20048;-81
2022/05/11 00:17:33;;;;;;;1.73;0.90;;;;;;;10.80;32.98;99396.28;4833498;29;20050;-77
2022/05/11 00:19:59;;;;;;;1.08;0.98;;;;;;;10.62;32.74;99362.75;4820076;29;20057;-76
2022/05/11 00:22:25;;;;;;;1.88;1.00;;;;;;;10.67;32.76;99368.75;4823002;29;20046;-80
2022/05/11 00:24:51;;;;;;;3.78;0.98;;;;;;;10.77;32.83;99383.31;4823218;29;20041;-80
2022/05/11 00:27:17;;;;;;;1.95;1.00;;;;;;;10.87;32.46;99391.84;4838233;29;20058;-79
2022/05/11 00:29:43;;;;;;;3.15;1.20;;;;;;;10.73;32.79;99366.03;4823873;29;20498;-77
2022/05/11 00:32:09;;;;;;;1.67;0.90;;;;;;;10.64;32.69;99355.78;4824858;29;20076;-80
2022/05/11 00:34:35;;;;;;;1.20;0.98;;;;;;;10.72;32.83;99376.47;4853687;29;20046;-83
2022/05/11 00:37:01;;;;;;;3.33;1.27;;;;;;;10.70;32.78;99366.13;4839707;29;20047;-80
2022/05/11 00:39:27;;;;;;;0.82;0.80;;;;;;;10.74;32.59;99375.56;4819866;29;20128;-80
2022/05/11 00:41:53;;;;;;;1.30;0.90;;;;;;;10.60;32.91;99349.75;4823116;29;20052;-80
2022/05/11 00:44:21;;;;;;;4.07;0.95;;;;;;;10.82;32.83;99389.31;4853061;29;20049;-80
2022/05/11 00:46:58;;;;;;;2.17;0.90;;;;;;;10.80;32.88;99387.63;4858701;29;20117;-77
2022/05/11 00:49:35;;;;;;;1.60;1.08;;;;;;;10.85;33.34;99389.28;4841895;29;20046;-76
2022/05/11 00:52:04;;;;;;;1.92;1.02;;;;;;;10.77;32.88;99361.66;4852134;29;20446;-79
2022/05/11 00:54:36;;;;;;;1.50;0.90;;;;;;;10.60;32.79;99360.16;4849598;29;20045;-80
2022/05/11 00:57:09;;;;;;;2.55;1.50;;;;;;;10.76;33.44;99383.38;4834367;29;20527;-78
2022/05/11 00:59:38;;;;;;;1.65;0.80;;;;;;;10.59;33.03;99340.28;4835514;29;20045;-79
2022/05/11 01:02:06;;;;;;;2.25;1.17;;;;;;;10.50;32.81;99333.44;4831944;29;20041;-76
2022/05/11 01:04:38;;;;;;;1.05;0.70;;;;;;;10.75;32.89;99368.63;4851575;29;20086;-77
2022/05/11 01:07:11;;;;;;;1.15;0.90;;;;;;;10.80;33.09;99375.47;4849681;29;20045;-81
2022/05/11 01:09:39;;;;;;;2.25;0.90;;;;;;;10.72;32.93;99353.91;4829213;29;20045;-78
2022/05/11 01:12:11;;;;;;;1.40;0.95;;;;;;;10.81;33.26;99385.00;4849014;29;20518;-80
2022/05/11 01:14:40;;;;;;;4.32;1.00;;;;;;;10.79;32.77;99373.75;4849743;29;20047;-77
2022/05/11 01:17:07;;;;;;;1.00;0.90;;;;;;;10.79;32.89;99378.13;4834435;29;20046;-81
2022/05/11 01:19:38;;;;;;;3.15;1.20;;;;;;;10.65;33.29;99349.72;4832907;29;20089;-79
2022/05/11 01:22:29;;;;;;;1.90;0.98;;;;;;;10.76;33.26;99379.00;4850732;29;20058;-81
2022/05/11 01:24:55;;;;;;;1.30;0.82;;;;;;;10.73;32.82;99379.03;4849381;29;20570;-75
2022/05/11 01:27:31;;;;;;;1.30;0.90;;;;;;;10.60;32.81;99370.56;4837482;29;20049;-80
2022/05/11 01:30:10;;;;;;;1.70;0.88;;;;;;;10.54;33.06;99384.56;4848589;29;20565;-79
2022/05/11 01:32:38;;;;;;;1.58;1.05;;;;;;;10.53;32.78;99376.78;4850428;29;20067;-77
2022/05/11 01:35:31;;;;;;;1.73;1.15;;;;;;;10.50;32.87;99385.47;4821792;29;20478;-78
2022/05/11 01:38:34;;;;;;;2.35;0.90;;;;;;;10.51;33.25;99388.94;4847890;29;20720;-78
2022/05/11 01:41:01;;;;;;;1.83;0.82;;;;;;;10.49;32.92;99385.50;4818457;29;20041;-79
2022/05/11 01:43:30;;;;;;;1.63;1.00;;;;;;;10.46;33.07;99391.63;4848345;29;20052;-79
2022/05/11 01:45:58;;;;;;;2.70;1.00;;;;;;;10.44;33.12;99382.97;4834478;29;20042;-78
2022/05/11 01:48:24;;;;;;;1.88;0.93;;;;;;;10.29;32.99;99370.16;4833871;29;20045;-79
2022/05/11 01:50:51;;;;;;;1.60;0.95;;;;;;;10.46;33.49;99377.75;4832099;29;20068;-79
2022/05/11 01:53:17;;;;;;;2.55;1.00;;;;;;;10.40;33.59;99363.09;4849105;29;20076;-82
2022/05/11 01:55:43;;;;;;;3.47;0.90;;;;;;;10.31;33.54;99351.06;4830042;29;20045;-78
2022/05/11 01:58:11;;;;;;;3.45;1.10;;;;;;;10.44;33.30;99375.19;4831915;29;20072;-79
2022/05/11 02:00:40;;;;;;;1.33;1.20;;;;;;;10.42;33.15;99365.66;4815465;29;20050;-78
2022/05/11 02:03:06;;;;;;;2.30;1.08;;;;;;;10.34;33.32;99352.75;4820376;29;20081;-78
2022/05/11 02:08:17;;;;;;;2.25;1.10;;;;;;;10.31;33.59;99363.19;4823652;29;20057;-80
2022/05/11 02:10:44;;;;;;;1.95;1.10;;;;;;;10.37;33.66;99368.31;4833323;29;20073;-77
2022/05/11 02:13:10;;;;;;;2.33;0.98;;;;;;;10.32;33.42;99341.50;4849349;29;20109;-81
2022/05/11 02:15:36;;;;;;;2.38;1.05;;;;;;;10.52;33.26;99359.44;4849032;29;20052;-79
2022/05/11 02:18:06;;;;;;;2.25;0.93;;;;;;;10.51;33.21;99353.38;4847926;29;20140;-79
2022/05/11 02:20:33;;;;;;;1.63;1.00;;;;;;;10.59;33.64;99355.88;4848844;29;20434;-81
2022/05/11 02:22:59;;;;;;;1.92;1.20;;;;;;;10.39;33.33;99327.56;4851453;29;20057;-78
2022/05/11 02:25:26;;;;;;;4.03;2.35;;;;;;;10.61;33.38;99348.88;4842285;29;20061;-78
2022/05/11 02:27:52;;;;;;;1.38;0.90;;;;;;;10.45;33.44;99331.81;4823362;29;20041;-78
2022/05/11 02:30:37;;;;;;;2.38;1.08;;;;;;;10.50;33.46;99359.47;4820648;29;20071;-78
2022/05/11 02:33:03;;;;;;;4.22;1.00;;;;;;;10.42;33.59;99344.84;4833463;29;20093;-81
2022/05/11 02:35:32;;;;;;;2.35;1.00;;;;;;;10.34;33.69;99329.34;4848259;29;20073;-80
2022/05/11 02:38:01;;;;;;;2.88;1.00;;;;;;;10.27;33.36;99317.31;4820227;29;20054;-77
2022/05/11 02:40:30;;;;;;;1.83;1.10;;;;;;;10.43;33.24;99330.97;4799293;29;20049;-80
2022/05/11 02:42:56;;;;;;;1.63;1.10;;;;;;;10.42;33.50;99334.44;4833478;29;20046;-80
2022/05/11 02:45:24;;;;;;;2.20;1.05;;;;;;;10.37;33.67;99329.28;4834358;29;20155;-79
2022/05/11 02:47:52;;;;;;;1.83;0.88;;;;;;;10.49;33.37;99347.34;4835423;29;20049;-80
2022/05/11 02:50:22;;;;;;;1.77;1.10;;;;;;;10.57;33.45;99351.56;4847805;29;20462;-79
2022/05/11 02:52:48;;;;;;;3.60;1.17;;;;;;;10.58;33.47;99359.38;4829437;29;20076;-79
2022/05/11 02:55:14;;;;;;;1.88;1.00;;;;;;;10.42;33.49;99331.84;4849673;29;20451;-81
2022/05/11 02:57:42;;;;;;;3.45;1.27;;;;;;;10.65;33.72;99354.91;4835923;29;20143;-78
2022/05/11 03:00:11;;;;;;;3.45;1.85;;;;;;;10.54;33.34;99321.25;4824173;29;20049;-81
2022/05/11 03:02:38;;;;;;;1.98;1.00;;;;;;;10.69;33.48;99336.63;4834421;29;20053;-83
2022/05/11 03:05:04;;;;;;;2.33;1.33;;;;;;;10.51;33.32;99311.75;4836792;29;20042;-84
2022/05/11 03:07:30;;;;;;;4.30;1.63;;;;;;;10.71;33.37;99331.38;4848338;29;20056;-81
2022/05/11 03:09:57;;;;;;;2.15;1.45;;;;;;;10.84;33.26;99339.84;4836639;29;20120;-80
2022/05/11 03:12:23;;;;;;;1.60;1.20;;;;;;;10.79;33.60;99346.88;4850918;29;20132;-81
2022/05/11 03:14:53;;;;;;;3.95;1.20;;;;;;;10.50;33.44;99293.59;4830769;29;20116;-81
2022/05/11 03:17:20;;;;;;;2.85;1.23;;;;;;;10.75;33.45;99330.44;4833266;29;20041;-78
2022/05/11 03:19:46;;;;;;;2.65;1.08;;;;;;;10.82;33.55;99342.47;4849468;29;20041;-81
2022/05/11 03:22:12;;;;;;;1.80;1.30;;;;;;;10.87;33.91;99351.94;4836044;29;20042;-81
2022/05/11 03:24:38;;;;;;;3.80;1.10;;;;;;;10.80;33.44;99348.59;4852060;29;20041;-81
2022/05/11 03:27:05;;;;;;;2.88;1.30;;;;;;;10.82;33.84;99349.41;4856383;29;20117;-79
2022/05/11 03:29:31;;;;;;;2.75;1.30;;;;;;;10.90;33.85;99338.88;4857831;29;20049;-80
2022/05/11 03:34:42;;;;;;;2.00;1.23;;;;;;;10.94;33.76;99346.59;4854394;29;20498;-81
2022/05/11 03:37:15;;;;;;;2.33;1.30;;;;;;;10.94;33.53;99353.53;4821840;29;20533;-79
2022/05/11 03:39:41;;;;;;;4.05;1.10;;;;;;;10.99;34.00;99343.91;4813573;29;20520;-77
2022/05/11 03:42:12;;;;;;;2.88;1.20;;;;;;;11.05;33.91;99342.94;4825834;29;20057;-77
2022/05/11 03:44:38;;;;;;;3.03;1.17;;;;;;;11.07;33.59;99335.97;4836791;29;20073;-78
2022/05/11 03:47:05;;;;;;;3.03;1.15;;;;;;;11.12;33.50;99321.13;4842079;29;20080;-79
2022/05/11 03:49:31;;;;;;;4.60;1.73;;;;;;;11.26;33.38;99329.50;4837108;29;20420;-78
2022/05/11 03:51:57;;;;;;;4.32;1.50;;;;;;;11.31;33.36;99326.84;4814360;29;20034;-79
2022/05/11 03:54:23;;;;;;;5.32;2.38;;;;;;;11.39;33.23;99343.16;4854497;29;20060;-77
2022/05/11 03:56:49;;;;;;;4.97;2.92;;;;;;;11.39;33.34;99335.34;4856479;29;20121;-78
2022/05/11 03:59:16;;;;;;;5.70;3.30;;;;;;;11.49;33.37;99336.03;4854309;29;20173;-77
2022/05/11 04:01:41;;;;;;;8.77;3.35;;;;;;;11.52;33.26;99333.34;4856466;29;20038;-75
2022/05/11 04:04:07;;;;;;;5.70;3.70;;;;;;;11.13;33.47;99266.44;4838121;29;20042;-78
2022/05/11 04:06:34;;;;;;;7.32;4.03;;;;;;;11.42;33.29;99316.22;4837938;29;20060;-79
2022/05/11 04:08:59;;;;;;;7.05;4.53;;;;;;;11.59;33.57;99331.47;4830662;29;20518;-77
2022/05/11 04:11:26;;;;;;;8.77;4.53;;;;;;;11.37;33.17;99292.00;4845199;29;20121;-78
2022/05/11 04:13:52;;;;;;;7.07;4.00;;;;;;;11.57;32.99;99325.47;4838161;29;20042;-78
2022/05/11 04:16:19;;;;;;;7.28;4.00;;;;;;;11.39;33.13;99280.66;4848899;29;20045;-77
2022/05/11 04:18:46;;;;;;;6.22;4.00;;;;;;;11.63;33.17;99294.06;4858894;29;20037;-78
2022/05/11 04:21:12;;;;;;;6.53;3.67;;;;;;;11.89;32.57;99316.09;4848354;29;20489;-77
2022/05/11 04:23:41;;;;;;;6.03;3.40;;;;;;;12.02;32.69;99321.94;4845590;29;20041;-80
2022/05/11 04:26:09;;;;;;;4.28;2.83;;;;;;;12.04;32.52;99310.56;4827596;29;20056;-81
2022/05/11 04:28:35;;;;;;;5.90;3.10;;;;;;;12.16;32.42;99316.41;4851443;29;20046;-80
2022/05/11 04:31:07;;;;;;;6.70;3.28;;;;;;;12.26;31.90;99309.22;4828262;29;20048;-77
2022/05/11 04:33:34;;;;;;;4.18;2.45;;;;;;;12.12;32.15;99280.84;4835932;29;20053;-79
2022/05/11 04:36:01;;;;;;;5.10;2.40;;;;;;;12.27;31.68;99309.16;4862339;29;20458;-79
2022/05/11 04:38:27;;;;;;;3.88;2.22;;;;;;;12.25;31.85;99300.53;4845850;29;20045;-80
2022/05/11 04:40:53;;;;;;;2.80;1.70;;;;;;;12.32;31.27;99312.53;4843534;29;20054;-79
2022/05/11 04:43:20;;;;;;;5.72;2.00;;;;;;;12.42;31.48;99305.34;4832637;29;20045;-80
2022/05/11 04:45:47;;;;;;;3.15;1.83;;;;;;;12.43;31.43;99308.81;4847372;29;20456;-79
2022/05/11 04:48:15;;;;;;;2.92;1.60;;;;;;;12.50;31.58;99305.16;4862323;29;20037;-80
2022/05/11 04:50:43;;;;;;;2.00;1.27;;;;;;;12.63;31.65;99303.97;4846537;29;20049;-79
2022/05/11 04:53:11;;;;;;;2.97;1.35;;;;;;;12.74;31.18;99306.31;4843717;29;20069;-79
2022/05/11 04:55:38;;;;;;;3.88;1.35;;;;;;;12.61;31.15;99269.22;4845370;29;20251;-78
2022/05/11 04:58:04;;;;;;;3.05;1.20;;;;;;;12.76;30.84;99283.63;4862818;29;20046;-78
2022/05/11 05:00:33;;;;;;;3.72;1.20;;;;;;;12.81;31.04;99293.94;4844676;29;20458;-77
2022/05/11 05:03:01;;;;;;;2.95;1.00;;;;;;;12.74;30.84;99264.53;4853196;29;20128;-78
2022/05/11 05:05:27;;;;;;;1.77;1.20;;;;;;;12.72;30.99;99261.09;4832877;29;20155;-78
2022/05/11 05:07:53;;;;;;;1.45;1.10;;;;;;;12.91;31.13;99289.34;4835929;29;20037;-77
2022/05/11 05:10:21;;;;;;;18.45;9.70;;;;;;;13.07;30.58;99281.94;4838163;29;20045;-81
2022/05/11 05:12:48;;;;;;;9.13;4.75;;;;;;;13.19;30.47;99271.16;4826427;29;20054;-78
2022/05/11 05:15:16;;;;;;;1.33;1.20;;;;;;;13.16;30.29;99252.94;4815972;29;20101;-81
2022/05/11 05:17:45;;;;;;;2.83;1.40;;;;;;;13.48;30.31;99272.09;4818006;29;20038;-78
2022/05/11 05:20:13;;;;;;;4.20;1.67;;;;;;;13.57;30.13;99260.53;4850988;29;20049;-80
2022/05/11 05:22:39;;;;;;;5.03;1.42;;;;;;;13.77;29.80;99252.09;4821262;29;20617;-81
2022/05/11 05:25:08;;;;;;;3.55;1.52;;;;;;;13.97;29.83;99269.75;4836087;29;20102;-78
2022/05/11 05:27:34;;;;;;;3.80;2.60;;;;;;;14.17;29.48;99265.66;4831702;29;20049;-77
2022/05/11 05:32:44;;;;;;;4.38;2.28;;;;;;;14.63;29.18;99244.97;4837925;29;20233;-81
2022/05/11 05:35:16;;;;;;;2.65;1.20;;;;;;;15.03;28.45;99242.72;4862478;29;20069;-78
2022/05/11 05:37:42;;;;;;;4.85;1.58;;;;;;;15.63;28.17;99255.38;4824040;29;20034;-78
2022/05/11 05:40:09;;;;;;;3.85;1.63;;;;;;;16.06;27.78;99232.72;4843226;29;20049;-78
2022/05/11 05:42:35;;;;;;;4.30;1.05;;;;;;;16.78;26.87;99261.25;4849920;29;20050;-76
2022/05/11 05:45:03;;;;;;;2.55;1.20;;;;;;;17.30;25.95;99255.53;4835443;29;20101;-78
2022/05/11 05:47:30;;;;;;;3.38;1.58;;;;;;;17.87;26.00;99252.03;4833187;29;20067;-79
2022/05/11 05:49:56;;;;;;;2.63;1.33;;;;;;;18.41;25.11;99253.84;4838693;29;20049;-79
2022/05/11 05:52:23;;;;;;;5.72;1.65;;;;;;;18.76;24.46;99224.84;4833429;29;20048;-80
2022/05/11 05:54:51;;;;;;;3.55;1.52;;;;;;;18.92;24.26;99261.81;4832467;29;20521;-82
2022/05/11 05:57:18;;;;;;;2.42;1.33;;;;;;;18.92;24.18;99260.00;4808113;29;20822;-78
2022/05/11 05:59:45;;;;;;;5.53;1.30;;;;;;;19.01;23.98;99220.97;4820626;29;20573;-79
2022/05/11 06:02:16;;;;;;;6.57;1.30;;;;;;;19.38;23.44;99256.75;4849929;29;20506;-81
2022/05/11 06:04:47;;;;;;;4.38;1.52;;;;;;;19.60;23.02;99239.75;4832137;29;20049;-80
2022/05/11 06:07:14;;;;;;;4.82;1.60;;;;;;;19.82;23.08;99257.88;4852968;29;20041;-81
2022/05/11 06:09:40;;;;;;;3.25;1.27;;;;;;;20.07;22.55;99250.41;4836959;29;20498;-77
2022/05/11 06:12:08;;;;;;;3.38;1.35;;;;;;;20.46;22.47;99254.31;4850902;29;20045;-81
2022/05/11 06:14:36;;;;;;;4.50;1.42;;;;;;;20.54;22.22;99248.56;4833651;29;20049;-81
2022/05/11 06:17:03;;;;;;;15.85;10.30;;;;;;;20.43;22.53;99236.81;4851959;29;20076;-78
2022/05/11 06:19:30;;;;;;;19.10;7.95;;;;;;;20.86;22.15;99249.31;4834867;29;20037;-80
2022/05/11 06:21:56;;;;;;;8.85;3.13;;;;;;;21.02;21.36;99233.38;4851163;29;20135;-83
2022/05/11 06:24:22;;;;;;;5.53;1.98;;;;;;;21.26;21.45;99234.59;4831985;29;20053;-80
2022/05/11 06:26:48;;;;;;;4.97;1.80;;;;;;;21.35;21.30;99240.16;4852788;29;20080;-78
2022/05/11 06:29:15;;;;;;;4.75;1.60;;;;;;;21.42;20.66;99231.84;4831538;29;20081;-79
2022/05/11 06:31:41;;;;;;;5.35;1.30;;;;;;;21.19;20.43;99202.38;4837490;29;20096;-78
2022/05/11 06:34:07;;;;;;;4.65;1.63;;;;;;;21.39;20.46;99227.59;4832872;29;20516;-79
2022/05/11 06:36:41;;;;;;;8.73;1.80;;;;;;;21.83;20.22;99223.06;4849246;29;20112;-81
2022/05/11 06:39:07;;;;;;;7.97;2.97;;;;;;;22.08;20.33;99210.88;4822494;29;20056;-81
2022/05/11 06:41:33;;;;;;;6.70;2.40;;;;;;;22.58;20.13;99213.75;4822634;29;20046;-80
2022/05/11 06:43:59;;;;;;;5.45;1.90;;;;;;;22.77;19.58;99210.69;4821262;29;20045;-79
2022/05/11 06:46:25;;;;;;;10.63;3.22;;;;;;;23.12;19.31;99219.81;4825984;29;20060;-78
2022/05/11 06:48:52;;;;;;;15.73;7.25;;;;;;;23.26;19.45;99229.47;4849200;29;20087;-81
2022/05/11 06:51:20;;;;;;;13.88;7.18;;;;;;;23.06;19.41;99180.44;4832805;29;20140;-78
2022/05/11 06:59:36;;;;;;;2.67;1.95;;;;;;;23.57;19.31;99203.38;4801896;29;20053;-81
2022/05/11 07:02:03;;;;;;;3.78;1.60;;;;;;;23.69;18.71;99204.28;4815953;29;20057;-81
2022/05/11 07:04:37;;;;;;;4.75;1.70;;;;;;;23.86;18.55;99216.31;4831612;29;20053;-79
2022/05/11 07:07:05;;;;;;;4.43;1.40;;;;;;;23.76;18.56;99210.84;4833969;29;20045;-83
2022/05/11 07:09:35;;;;;;;4.72;1.35;;;;;;;23.66;18.78;99215.97;4820034;29;20053;-80
2022/05/11 07:12:18;;;;;;;5.10;1.45;;;;;;;23.28;18.62;99203.69;4847507;29;20049;-79
2022/05/11 07:15:22;;;;;;;4.85;1.80;;;;;;;23.53;18.61;99207.19;4848971;29;20049;-80
2022/05/11 07:17:54;;;;;;;5.78;1.95;;;;;;;23.50;18.85;99210.94;4835036;29;20049;-80
2022/05/11 07:20:26;;;;;;;5.35;1.73;;;;;;;23.56;18.52;99215.81;4857089;29;20044;-83
2022/05/11 07:22:53;;;;;;;4.72;2.85;;;;;;;23.60;18.58;99189.88;4807287;29;20072;-82
2022/05/11 07:25:22;;;;;;;4.80;1.98;;;;;;;24.01;18.24;99209.91;4835533;29;20041;-80
2022/05/11 07:27:59;;;;;;;5.78;2.13;;;;;;;24.37;18.18;99207.25;4851364;29;20054;-81
2022/05/11 07:33:23;;;;;;;3.25;1.60;;;;;;;23.72;17.77;99093.34;4845693;29;20062;-82
2022/05/11 07:35:49;;;;;;;4.40;1.40;;;;;;;24.19;17.60;99191.75;4857132;29;20044;-79
2022/05/11 07:38:18;;;;;;;6.03;1.60;;;;;;;24.02;17.85;99198.31;4815949;29;20045;-80
2022/05/11 07:40:47;;;;;;;4.78;2.28;;;;;;;24.04;17.94;99207.03;4845793;29;20073;-79
2022/05/11 07:43:13;;;;;;;3.35;2.30;;;;;;;24.30;17.79;99201.56;4857391;29;20041;-79
2022/05/11 07:45:57;;;;;;;3.80;1.55;;;;;;;24.54;17.64;99163.44;4812479;29;20052;-80
2022/05/11 07:48:29;;;;;;;4.80;1.55;;;;;;;24.41;17.79;99160.00;4855947;29;20053;-82
2022/05/11 07:51:06;;;;;;;4.47;2.97;;;;;;;24.94;17.27;99176.28;4840456;29;20121;-81
2022/05/11 07:53:34;;;;;;;6.25;3.80;;;;;;;25.44;17.19;99172.41;4852734;29;20187;-82
2022/05/11 08:00:08;;;;;;;5.68;1.60;;;;;;;25.78;17.00;99124.34;4839206;29;20557;-81
2022/05/11 08:03:01;;;;;;;;;;;;;;;26.95;16.48;99167.91;4771265;29;20311;-82
2022/05/11 08:05:33;;;;;;;6.40;2.60;;;;;;;26.72;15.97;99034.66;4834501;29;19953;-83
2022/05/11 08:08:06;;;;;;;5.47;2.22;;;;;;;27.66;15.59;99130.44;4831704;29;20477;-79
2022/05/11 08:10:50;;;;;;;4.40;1.60;;;;;;;27.72;15.00;99074.72;4853458;29;20041;-83
2022/05/11 08:13:18;;;;;;;4.07;2.08;;;;;;;27.15;15.16;99012.13;4852608;29;20053;-79
2022/05/11 08:18:55;;;;;;;4.07;1.67;;;;;;;27.79;14.57;99153.34;4839819;29;20157;-80
2022/05/11 08:21:21;;;;;;;5.63;1.80;;;;;;;27.55;14.94;99149.25;4839018;29;20041;-83
2022/05/11 08:23:49;;;;;;;4.68;1.70;;;;;;;27.87;14.75;99155.31;4835611;29;20057;-79
2022/05/11 08:26:15;;;;;;;8.00;2.13;;;;;;;28.04;14.29;99135.06;4835101;29;20138;-80
2022/05/11 08:28:42;;;;;;;4.47;2.15;;;;;;;28.41;14.06;99155.69;4837983;29;20052;-80
2022/05/11 08:33:53;;;;;;;3.85;2.45;;;;;;;29.12;13.59;99143.63;4833421;29;20594;-80
2022/05/11 08:36:23;;;;;;;5.35;2.03;;;;;;;29.36;13.46;99144.06;4831242;29;20045;-81
2022/05/11 08:38:52;;;;;;;5.68;1.90;;;;;;;29.38;13.00;99131.38;4814755;29;20053;-79
2022/05/11 08:41:42;;;;;;;5.97;1.70;;;;;;;29.10;13.36;99126.03;4832229;29;20045;-83
2022/05/11 08:44:10;;;;;;;4.47;1.90;;;;;;;29.29;12.73;99141.13;4830807;29;20073;-83
2022/05/11 08:46:55;;;;;;;4.70;1.65;;;;;;;29.21;13.46;99130.34;4833051;29;20571;-82
2022/05/11 08:49:55;;;;;;;4.68;1.90;;;;;;;29.58;12.55;99150.84;4839342;29;20037;-79
2022/05/11 08:52:52;;;;;;;5.03;2.10;;;;;;;29.38;12.61;99126.88;4807431;29;20073;-81
2022/05/11 08:55:39;;;;;;;4.03;1.98;;;;;;;29.33;12.69;99133.66;4826163;29;20195;-80
2022/05/11 08:58:22;;;;;;;4.10;1.98;;;;;;;29.51;12.50;99139.03;4834163;29;20862;-79
2022/05/11 09:00:50;;;;;;;4.50;2.10;;;;;;;29.07;12.61;99137.88;4846926;29;20456;-80
2022/05/11 09:03:41;;;;;;;7.47;2.13;;;;;;;28.53;12.62;99124.28;4818041;29;20073;-82
2022/05/11 09:06:24;;;;;;;4.57;1.83;;;;;;;28.18;13.11;99131.97;4830553;29;20045;-81
2022/05/11 09:08:51;;;;;;;3.38;1.75;;;;;;;27.89;13.33;99127.47;4831588;29;20513;-80
2022/05/11 09:11:32;;;;;;;3.03;1.77;;;;;;;27.65;13.60;99134.09;4838882;29;20522;-85
2022/05/11 09:14:00;;;;;;;2.00;1.40;;;;;;;27.20;13.33;99131.88;4835774;29;20060;-85
2022/05/11 09:16:37;;;;;;;2.75;1.60;;;;;;;27.10;13.91;99125.66;4817828;29;20453;-79
2022/05/11 09:19:18;;;;;;;5.10;1.70;;;;;;;27.05;13.36;99108.22;4832398;29;20046;-80
2022/05/11 09:21:55;;;;;;;4.80;1.70;;;;;;;27.27;13.86;99124.16;4834607;29;20049;-81
2022/05/11 09:24:30;;;;;;;6.97;1.70;;;;;;;27.42;13.33;99113.94;4832778;29;20050;-84
2022/05/11 09:27:07;;;;;;;5.40;1.70;;;;;;;27.45;13.56;99119.84;4832414;29;20215;-81
2022/05/11 09:29:42;;;;;;;3.03;1.60;;;;;;;27.63;13.06;99128.03;4816186;29;20059;-84
2022/05/11 09:32:29;;;;;;;5.57;2.08;;;;;;;27.69;13.79;99123.13;4834800;29;20073;-79
2022/05/11 09:35:16;;;;;;;5.55;2.33;;;;;;;26.88;14.28;99130.22;4833547;29;20057;-80
2022/05/11 09:37:47;;;;;;;3.35;1.50;;;;;;;26.26;15.07;99119.53;4833540;29;20052;-81
2022/05/11 09:40:21;;;;;;;3.10;1.90;;;;;;;25.84;14.64;99056.38;4822453;29;20045;-80
2022/05/11 09:42:59;;;;;;;6.65;1.90;;;;;;;26.21;14.47;99141.25;4831845;29;20057;-82
2022/05/11 09:45:48;;;;;;;8.25;1.60;;;;;;;26.04;14.50;99141.81;4832930;29;20041;-81
2022/05/11 09:48:22;;;;;;;5.72;1.50;;;;;;;25.70;14.55;99134.81;4816942;29;20054;-80
2022/05/11 09:50:58;;;;;;;3.03;1.60;;;;;;;25.31;14.65;99087.34;4838638;29;20057;-84
2022/05/11 09:53:36;;;;;;;2.75;1.67;;;;;;;25.38;14.50;99147.06;4815179;29;20049;-83
2022/05/11 09:56:22;;;;;;;10.95;1.90;;;;;;;25.28;14.70;99148.81;4851133;29;20113;-81
2022/05/11 09:58:48;;;;;;;4.03;1.75;;;;;;;25.11;14.84;99136.84;4836997;29;20875;-82
2022/05/11 10:01:17;;;;;;;3.28;1.83;;;;;;;25.24;14.87;99150.00;4851175;29;20052;-80
2022/05/11 10:04:05;;;;;;;3.42;1.55;;;;;;;25.50;15.14;99161.22;4837564;29;20063;-80
2022/05/11 10:06:39;;;;;;;4.97;1.60;;;;;;;25.62;14.88;99162.06;4856570;29;20053;-80
2022/05/11 10:09:05;;;;;;;5.75;2.13;;;;;;;26.00;14.59;99150.06;4839507;29;20081;-81
2022/05/11 10:11:50;;;;;;;4.60;1.90;;;;;;;26.23;14.62;99155.28;4841034;29;20097;-80
2022/05/11 10:23:22;;;;;;;3.08;1.70;;;;;;;26.37;14.26;99127.44;4838425;29;20041;-79
2022/05/11 10:25:58;;;;;;;2.80;1.55;;;;;;;26.07;14.91;99142.38;4855264;29;20096;-79
2022/05/11 10:28:54;;;;;;;8.57;1.67;;;;;;;25.83;14.78;99156.78;4842880;29;20536;-79
2022/05/11 10:31:52;;;;;;;6.95;1.80;;;;;;;25.83;15.07;99154.13;4836252;29;20152;-79
2022/05/11 10:34:53;;;;;;;5.68;1.88;;;;;;;25.36;15.16;99162.34;4824774;29;20595;-82
2022/05/11 10:37:26;;;;;;;3.83;1.70;;;;;;;25.20;15.28;99143.25;4818603;29;20068;-82
2022/05/11 10:40:18;;;;;;;3.25;1.60;;;;;;;25.04;15.24;99146.31;4835509;29;20059;-79
2022/05/11 10:42:44;;;;;;;5.65;1.80;;;;;;;25.09;15.05;99157.41;4835827;29;20623;-80
2022/05/11 10:45:22;;;;;;;4.05;1.58;;;;;;;24.89;15.50;99154.53;4805306;29;20510;-82
2022/05/11 10:48:25;;;;;;;6.13;1.63;;;;;;;24.56;15.38;99165.97;4835851;29;20544;-82
2022/05/11 10:51:00;;;;;;;3.13;1.75;;;;;;;24.38;15.80;99161.09;4833754;29;20053;-82
2022/05/11 10:53:46;;;;;;;2.95;1.40;;;;;;;24.10;16.63;99165.03;4832992;29;20055;-80
2022/05/11 10:56:29;;;;;;;4.75;1.65;;;;;;;23.64;17.45;99134.72;4836146;29;20144;-81
2022/05/11 10:59:14;;;;;;;5.30;2.03;;;;;;;23.73;17.65;99165.91;4836274;29;20088;-81
2022/05/11 11:02:09;;;;;;;5.60;1.73;;;;;;;23.45;17.36;99136.94;4821840;29;20477;-79
2022/05/11 11:04:44;;;;;;;4.35;1.60;;;;;;;23.38;17.04;99158.75;4807201;29;20056;-80
2022/05/11 11:07:16;;;;;;;2.92;1.42;;;;;;;23.46;16.90;99156.34;4848408;29;20227;-80
2022/05/11 11:09:57;;;;;;;3.80;2.97;;;;;;;23.60;16.50;99147.38;4849340;29;20041;-83
2022/05/11 11:12:29;;;;;;;5.53;1.98;;;;;;;23.46;16.88;99159.88;4837599;29;20047;-77
2022/05/11 11:14:58;;;;;;;4.63;2.05;;;;;;;23.37;16.72;99139.31;4834047;29;20053;-78
2022/05/11 11:17:27;;;;;;;7.10;2.00;;;;;;;23.31;16.59;99148.56;4849416;29;20057;-82
2022/05/11 11:19:58;;;;;;;5.80;2.40;;;;;;;23.13;16.93;99148.03;4823580;29;20045;-77
2022/05/11 11:22:24;;;;;;;4.13;1.50;;;;;;;22.80;17.24;99138.88;4860059;29;20223;-76
2022/05/11 11:25:12;;;;;;;9.45;2.70;;;;;;;22.70;17.20;99137.81;4841048;29;20054;-78
2022/05/11 11:28:00;;;;;;;3.88;2.75;;;;;;;22.53;17.36;99145.16;4833860;29;20073;-79
2022/05/11 11:30:26;;;;;;;4.30;1.75;;;;;;;22.47;17.88;99121.72;4848299;29;21439;-79
2022/05/11 11:33:15;;;;;;;3.50;1.70;;;;;;;22.70;17.50;99127.22;4849225;29;20061;-77
2022/05/11 11:35:53;;;;;;;3.47;2.17;;;;;;;22.66;17.54;99116.00;4833110;29;20110;-78
2022/05/11 11:38:26;;;;;;;6.78;2.15;;;;;;;22.70;17.73;99133.38;4835182;29;20044;-78
2022/05/11 11:41:14;;;;;;;5.28;3.60;;;;;;;22.76;17.65;99124.13;4856930;29;20053;-78
2022/05/11 11:43:49;;;;;;;3.67;2.17;;;;;;;22.83;18.02;99116.59;4845785;29;20134;-79
2022/05/11 11:46:40;;;;;;;7.85;3.80;;;;;;;22.87;18.07;99108.31;4857380;29;20428;-78
2022/05/11 11:49:10;;;;;;;4.03;1.35;;;;;;;22.95;17.95;99113.06;4832118;29;20064;-78
2022/05/11 11:52:00;;;;;;;2.95;1.90;;;;;;;23.26;18.00;99115.38;4834626;29;20064;-79
2022/05/11 11:54:43;;;;;;;7.28;4.40;;;;;;;23.37;18.18;99111.94;4852523;29;20053;-79
2022/05/11 11:57:12;;;;;;;6.90;1.50;;;;;;;23.49;18.08;99099.56;4850067;29;20049;-79
2022/05/11 11:59:43;;;;;;;2.22;1.85;;;;;;;23.58;18.13;99102.38;4836744;29;20054;-77
2022/05/11 12:02:28;;;;;;;5.07;2.65;;;;;;;23.60;18.33;99108.44;4868316;29;20064;-78
2022/05/11 12:04:57;;;;;;;5.45;2.70;;;;;;;23.49;18.11;99103.03;4839935;29;20180;-79
2022/05/11 12:16:08;;;;;;;4.88;2.20;;;;;;;23.21;18.32;99098.88;4838235;29;20092;-80
2022/05/11 12:18:37;;;;;;;3.25;2.08;;;;;;;23.13;18.33;99102.09;4844259;29;20037;-78
2022/05/11 12:21:08;;;;;;;9.30;4.03;;;;;;;23.10;18.63;99097.84;4825562;29;20046;-82
2022/05/11 12:23:49;;;;;;;6.03;3.45;;;;;;;22.96;18.60;99088.22;4853519;29;20088;-81
2022/05/11 12:26:20;;;;;;;;;;;;;;;22.99;18.35;99095.97;4839127;29;20078;-78
2022/05/11 12:28:46;;;;;;;4.67;1.73;;;;;;;22.37;18.35;99022.59;4835501;29;20425;-78
2022/05/11 12:31:32;;;;;;;8.45;3.50;;;;;;;22.30;18.80;99045.16;4836164;29;20534;-82
2022/05/11 12:33:58;;;;;;;3.47;1.92;;;;;;;22.35;18.87;99085.44;4853846;29;20082;-80
2022/05/11 12:36:36;;;;;;;3.53;2.03;;;;;;;22.22;19.17;99074.84;4825297;29;20045;-76
2022/05/11 12:39:06;;;;;;;5.95;2.53;;;;;;;22.19;19.19;99083.00;4834381;29;20052;-79